Time;durP1;ratioP1;P1;durP2;ratioP2;P2;SDS_P1;SDS_P2;PMS_P1;PMS_P2;Temp;Humidity;BMP_temperature;BMP_pressure;BME280_temperature;BME280_humidity;BME280_pressure;Samples;Min_cycle;Max_cycle;Signal;HPM_P1;HPM_P2
2023/06/01 00:01:50;;;;;;;2.83;2.20;;;22.40;41.40;;;;;;5003513;28;20453;-83
2023/06/01 00:04:17;;;;;;;3.60;2.50;;;22.40;41.80;;;;;;5043519;28;20453;-83
2023/06/01 00:06:45;;;;;;;5.23;3.43;;;22.30;42.50;;;;;;5028576;28;20481;-87
2023/06/01 00:09:12;;;;;;;3.93;2.87;;;22.20;43.80;;;;;;5018408;28;20469;-83
2023/06/01 00:11:39;;;;;;;7.03;3.90;;;22.10;43.60;;;;;;5014557;28;20461;-84
2023/06/01 00:14:07;;;;;;;5.80;2.90;;;22.10;43.10;;;;;;5026309;28;20451;-83
2023/06/01 00:16:34;;;;;;;3.87;2.93;;;22.00;43.30;;;;;;5002619;28;20539;-84
2023/06/01 00:19:01;;;;;;;3.77;2.50;;;22.00;43.00;;;;;;5028720;28;20458;-85
2023/06/01 00:21:28;;;;;;;4.83;2.60;;;22.00;42.80;;;;;;5027863;28;20450;-85
2023/06/01 00:23:55;;;;;;;3.47;2.60;;;21.90;42.70;;;;;;5023232;28;20451;-83
2023/06/01 00:26:22;;;;;;;4.23;3.07;;;21.90;43.00;;;;;;5020021;28;21007;-85
2023/06/01 00:28:51;;;;;;;6.20;2.90;;;21.80;43.10;;;;;;5020857;28;20788;-84
2023/06/01 00:31:20;;;;;;;5.43;2.80;;;21.70;43.50;;;;;;5018115;28;20469;-84
2023/06/01 00:33:47;;;;;;;3.70;3.03;;;21.70;42.70;;;;;;5000235;28;20453;-83
2023/06/01 00:36:14;;;;;;;3.90;2.53;;;21.60;42.90;;;;;;5009296;28;20466;-84
2023/06/01 00:38:41;;;;;;;6.83;2.63;;;21.50;42.10;;;;;;5018215;28;20908;-83
2023/06/01 00:41:08;;;;;;;6.63;2.90;;;21.50;41.60;;;;;;5029964;28;20450;-83
2023/06/01 00:43:35;;;;;;;3.17;2.60;;;21.40;42.50;;;;;;5007781;28;20449;-82
2023/06/01 00:46:02;;;;;;;3.73;3.43;;;21.40;43.40;;;;;;5028796;28;20485;-83
2023/06/01 00:48:31;;;;;;;4.20;3.03;;;21.40;43.80;;;;;;5002113;28;20449;-84
2023/06/01 00:50:58;;;;;;;3.90;2.83;;;21.40;44.30;;;;;;5020400;28;20457;-84
2023/06/01 00:53:26;;;;;;;3.80;3.07;;;21.30;44.60;;;;;;5009222;28;20445;-85
2023/06/01 00:55:53;;;;;;;3.80;2.60;;;21.30;45.40;;;;;;5011151;28;20477;-84
2023/06/01 00:58:20;;;;;;;3.43;3.07;;;21.30;45.00;;;;;;4993033;28;21025;-83
2023/06/01 01:00:48;;;;;;;4.63;2.70;;;21.30;45.00;;;;;;5001734;28;20447;-83
2023/06/01 01:03:17;;;;;;;2.60;2.33;;;21.30;44.80;;;;;;5026831;28;20951;-83
2023/06/01 01:05:45;;;;;;;4.17;3.17;;;21.20;44.60;;;;;;5020308;28;20470;-84
2023/06/01 01:08:17;;;;;;;3.63;2.50;;;21.10;44.70;;;;;;5012181;28;20533;-85
2023/06/01 01:10:52;;;;;;;2.93;2.70;;;21.00;44.70;;;;;;5006684;28;20462;-84
2023/06/01 01:13:24;;;;;;;3.67;2.33;;;21.00;45.10;;;;;;5013572;28;20458;-84
2023/06/01 01:15:59;;;;;;;4.73;2.90;;;20.90;46.10;;;;;;5011334;28;21278;-83
2023/06/01 01:18:34;;;;;;;3.00;2.60;;;20.90;46.60;;;;;;5012132;28;20514;-83
2023/06/01 01:21:22;;;;;;;9.00;3.47;;;20.90;46.50;;;;;;5019520;28;20454;-86
2023/06/01 01:24:06;;;;;;;3.07;2.70;;;20.80;47.10;;;;;;5009483;28;20465;-85
2023/06/01 01:26:53;;;;;;;4.70;3.90;;;20.70;47.50;;;;;;4994939;28;20470;-84
2023/06/01 01:29:23;;;;;;;4.80;3.33;;;20.60;48.10;;;;;;5024460;28;20451;-83
2023/06/01 01:31:51;;;;;;;3.70;2.90;;;20.60;48.10;;;;;;5009756;28;20452;-83
2023/06/01 01:34:20;;;;;;;3.53;3.23;;;20.60;48.10;;;;;;5026487;28;20449;-84
2023/06/01 01:36:48;;;;;;;4.37;3.50;;;20.50;48.00;;;;;;5010097;28;20462;-83
2023/06/01 01:39:15;;;;;;;4.67;3.40;;;20.50;48.10;;;;;;4994671;28;20449;-84
2023/06/01 01:41:42;;;;;;;6.73;3.83;;;20.50;48.40;;;;;;5027464;28;20455;-83
2023/06/01 01:44:10;;;;;;;4.53;3.70;;;20.50;47.70;;;;;;5012721;28;20451;-85
2023/06/01 01:46:47;;;;;;;6.80;3.37;;;20.50;47.50;;;;;;5000999;28;20565;-83
2023/06/01 01:49:21;;;;;;;5.23;2.80;;;20.30;47.50;;;;;;5002361;28;20449;-84
2023/06/01 01:51:54;;;;;;;5.70;3.20;;;20.30;47.70;;;;;;5033669;28;20458;-83
2023/06/01 01:54:24;;;;;;;4.97;2.90;;;20.20;47.60;;;;;;5008383;28;20458;-84
2023/06/01 01:56:58;;;;;;;4.60;3.10;;;20.30;47.40;;;;;;5017421;28;20469;-82
2023/06/01 01:59:26;;;;;;;4.67;2.83;;;20.30;47.70;;;;;;5026688;28;20452;-83
2023/06/01 02:01:55;;;;;;;4.70;3.33;;;20.30;47.40;;;;;;4996484;28;21980;-85
2023/06/01 02:04:23;;;;;;;3.80;2.70;;;20.20;47.10;;;;;;5016363;28;20962;-83
2023/06/01 02:06:50;;;;;;;3.10;2.90;;;20.20;47.10;;;;;;5001019;28;20470;-84
2023/06/01 02:09:17;;;;;;;7.50;3.63;;;20.10;47.40;;;;;;5007226;28;20462;-84
2023/06/01 02:11:44;;;;;;;3.23;2.93;;;20.10;47.30;;;;;;5008605;28;20963;-84
2023/06/01 02:14:11;;;;;;;3.87;3.47;;;20.00;47.30;;;;;;5000605;28;20485;-83
2023/06/01 02:16:38;;;;;;;3.67;2.60;;;19.90;47.30;;;;;;5010313;28;20618;-83
2023/06/01 02:19:10;;;;;;;4.60;2.93;;;19.90;47.60;;;;;;4990517;28;20465;-83
2023/06/01 02:21:37;;;;;;;4.03;2.90;;;19.90;47.30;;;;;;5016827;28;20497;-85
2023/06/01 02:24:07;;;;;;;5.03;2.73;;;19.90;47.20;;;;;;5011309;28;20479;-83
2023/06/01 02:26:34;;;;;;;3.23;2.90;;;19.80;47.00;;;;;;5008066;28;20478;-83
2023/06/01 02:29:04;;;;;;;3.00;2.70;;;19.80;47.30;;;;;;5017038;28;20446;-85
2023/06/01 02:31:32;;;;;;;7.40;2.80;;;19.80;47.80;;;;;;4999424;28;20449;-85
2023/06/01 02:33:59;;;;;;;9.23;3.20;;;19.70;47.20;;;;;;5006933;28;20450;-83
2023/06/01 02:36:29;;;;;;;3.23;2.93;;;19.70;47.40;;;;;;5027006;28;20972;-84
2023/06/01 02:38:56;;;;;;;4.10;2.93;;;19.60;47.30;;;;;;5008376;28;21029;-82
2023/06/01 02:41:23;;;;;;;4.30;2.90;;;19.50;47.70;;;;;;4999486;28;20454;-81
2023/06/01 02:43:51;;;;;;;3.73;2.90;;;19.50;48.00;;;;;;5016592;28;20455;-84
2023/06/01 02:46:18;;;;;;;3.47;3.07;;;19.40;48.50;;;;;;5013926;28;20481;-85
2023/06/01 02:48:45;;;;;;;3.90;3.23;;;19.40;48.80;;;;;;5021724;28;20854;-83
2023/06/01 02:51:13;;;;;;;3.43;3.23;;;19.30;49.00;;;;;;5018851;28;20507;-83
2023/06/01 02:53:45;;;;;;;4.00;3.40;;;19.30;49.20;;;;;;4995495;28;20460;-83
2023/06/01 02:56:14;;;;;;;5.90;3.80;;;19.20;49.60;;;;;;5027214;28;20474;-82
2023/06/01 02:58:48;;;;;;;4.00;3.40;;;19.20;49.40;;;;;;4991816;28;20616;-84
2023/06/01 03:01:27;;;;;;;4.10;3.43;;;19.20;49.60;;;;;;5004559;28;20461;-83
2023/06/01 03:03:54;;;;;;;5.50;3.23;;;19.10;49.50;;;;;;5019735;28;20577;-84
2023/06/01 03:06:22;;;;;;;4.50;3.43;;;19.10;49.50;;;;;;5017827;28;20474;-83
2023/06/01 03:09:18;;;;;;;16.33;3.70;;;19.00;49.40;;;;;;5017792;28;20536;-84
2023/06/01 03:11:54;;;;;;;4.27;3.57;;;19.00;49.40;;;;;;5016452;28;20450;-85
2023/06/01 03:14:22;;;;;;;5.67;4.17;;;19.00;49.90;;;;;;5009787;28;20465;-83
2023/06/01 03:16:49;;;;;;;4.37;3.40;;;19.00;50.00;;;;;;5018227;28;20515;-84
2023/06/01 03:19:21;;;;;;;7.13;3.10;;;19.00;50.10;;;;;;5007546;28;20504;-84
2023/06/01 03:21:52;;;;;;;4.80;3.47;;;19.00;50.40;;;;;;5000297;28;20443;-83
2023/06/01 03:24:27;;;;;;;4.03;3.23;;;19.00;50.20;;;;;;5007454;28;20457;-84
2023/06/01 03:26:54;;;;;;;3.70;3.20;;;19.00;50.30;;;;;;5000593;28;21085;-83
2023/06/01 03:29:22;;;;;;;4.33;3.93;;;19.00;50.30;;;;;;5006779;28;20512;-83
2023/06/01 03:31:49;;;;;;;5.90;3.57;;;19.00;50.60;;;;;;5000257;28;20818;-83
2023/06/01 03:34:21;;;;;;;4.40;3.50;;;19.00;50.50;;;;;;4994676;28;20458;-84
2023/06/01 03:36:48;;;;;;;4.27;3.07;;;19.00;50.40;;;;;;5000219;28;20462;-84
2023/06/01 03:39:16;;;;;;;4.23;3.70;;;18.90;49.90;;;;;;5007104;28;20454;-83
2023/06/01 03:41:45;;;;;;;3.80;3.50;;;18.90;49.60;;;;;;4996507;28;20464;-84
2023/06/01 03:44:12;;;;;;;3.80;3.50;;;18.90;49.60;;;;;;5007319;28;20894;-83
2023/06/01 03:46:41;;;;;;;4.07;3.60;;;18.70;50.10;;;;;;4988555;28;20475;-83
2023/06/01 03:49:08;;;;;;;4.27;3.87;;;18.70;50.40;;;;;;5001552;28;21102;-84
2023/06/01 03:51:36;;;;;;;4.40;3.97;;;18.70;50.20;;;;;;5009958;28;20446;-83
2023/06/01 03:54:03;;;;;;;6.17;3.10;;;18.70;50.40;;;;;;5028152;28;20450;-83
2023/06/01 03:56:30;;;;;;;5.03;3.40;;;18.70;50.40;;;;;;4994431;28;20820;-84
2023/06/01 03:59:01;;;;;;;7.90;4.10;;;18.80;50.30;;;;;;5002983;28;20905;-83
2023/06/01 04:01:30;;;;;;;6.20;3.57;;;18.80;50.50;;;;;;5011102;28;20459;-84
2023/06/01 04:03:57;;;;;;;6.80;3.80;;;18.70;51.00;;;;;;5017893;28;20875;-83
2023/06/01 04:06:24;;;;;;;5.80;3.97;;;18.70;50.90;;;;;;5001415;28;20486;-84
2023/06/01 04:08:55;;;;;;;8.30;4.20;;;18.70;50.90;;;;;;5019568;28;20572;-84
2023/06/01 04:11:23;;;;;;;5.70;4.20;;;18.70;51.10;;;;;;5002960;28;20454;-83
2023/06/01 04:13:51;;;;;;;3.90;3.40;;;18.70;51.40;;;;;;5001122;28;20862;-85
2023/06/01 04:16:21;;;;;;;4.60;3.50;;;18.60;51.10;;;;;;5012520;28;21015;-83
2023/06/01 04:18:48;;;;;;;4.87;3.87;;;18.60;51.10;;;;;;5001413;28;20457;-83
2023/06/01 04:21:18;;;;;;;5.50;4.67;;;18.60;51.30;;;;;;5016181;28;20446;-83
2023/06/01 04:23:45;;;;;;;5.33;4.00;;;18.50;51.70;;;;;;5018561;28;20571;-83
2023/06/01 04:26:14;;;;;;;5.00;3.97;;;18.50;51.90;;;;;;5013945;28;20500;-83
2023/06/01 04:28:44;;;;;;;6.33;4.10;;;18.50;51.80;;;;;;5013472;28;20553;-83
2023/06/01 04:31:16;;;;;;;4.10;3.43;;;18.50;51.70;;;;;;5005410;28;20544;-84
2023/06/01 04:33:52;;;;;;;4.73;3.57;;;18.50;51.80;;;;;;5009381;28;20461;-83
2023/06/01 04:36:21;;;;;;;4.63;4.23;;;18.50;51.80;;;;;;5015783;28;20470;-84
2023/06/01 04:38:53;;;;;;;7.20;3.90;;;18.50;52.00;;;;;;5002342;28;20445;-83
2023/06/01 04:41:21;;;;;;;6.70;4.20;;;18.50;52.30;;;;;;5032919;28;20992;-84
2023/06/01 04:43:51;;;;;;;5.20;4.27;;;18.50;51.90;;;;;;5024594;28;20438;-83
2023/06/01 04:46:20;;;;;;;4.90;4.13;;;18.60;51.90;;;;;;5002261;28;20478;-84
2023/06/01 04:48:49;;;;;;;6.70;4.47;;;18.70;51.90;;;;;;5026898;28;20454;-85
2023/06/01 04:51:19;;;;;;;4.60;3.83;;;18.70;52.00;;;;;;5016622;28;20536;-83
2023/06/01 04:53:49;;;;;;;6.77;4.87;;;18.70;51.70;;;;;;5024187;28;20462;-83
2023/06/01 04:56:18;;;;;;;6.50;5.90;;;18.70;51.70;;;;;;5013630;28;20553;-83
2023/06/01 04:58:46;;;;;;;5.47;4.23;;;18.70;51.80;;;;;;5015802;28;20458;-85
2023/06/01 05:01:15;;;;;;;5.07;4.50;;;18.70;51.80;;;;;;5026739;28;20442;-86
2023/06/01 05:03:43;;;;;;;5.60;4.37;;;18.70;51.90;;;;;;4993592;28;20453;-85
2023/06/01 05:06:13;;;;;;;6.37;4.77;;;18.70;52.00;;;;;;5011627;28;20475;-83
2023/06/01 05:08:41;;;;;;;5.40;4.30;;;18.80;52.30;;;;;;5008703;28;20458;-83
2023/06/01 05:11:10;;;;;;;6.13;3.83;;;18.80;52.50;;;;;;5019170;28;20450;-83
2023/06/01 05:13:38;;;;;;;5.53;4.47;;;18.80;52.40;;;;;;5030780;28;20465;-83
2023/06/01 05:16:07;;;;;;;8.37;4.23;;;18.80;52.70;;;;;;5022583;28;21104;-86
2023/06/01 05:18:35;;;;;;;4.80;3.53;;;18.90;52.70;;;;;;5027400;28;20969;-83
2023/06/01 05:21:02;;;;;;;5.53;4.50;;;18.80;52.70;;;;;;5003072;28;20467;-83
2023/06/01 05:23:32;;;;;;;7.77;4.63;;;18.80;53.10;;;;;;5009861;28;20500;-83
2023/06/01 05:26:02;;;;;;;7.93;4.43;;;18.90;53.20;;;;;;5019496;28;20473;-83
2023/06/01 05:28:31;;;;;;;5.13;3.80;;;19.00;52.70;;;;;;5030361;28;20452;-83
2023/06/01 05:30:58;;;;;;;8.13;5.10;;;18.90;51.90;;;;;;4997730;28;20988;-86
2023/06/01 05:33:25;;;;;;;6.70;4.43;;;19.00;52.70;;;;;;5014796;28;20446;-83
2023/06/01 05:35:54;;;;;;;6.90;5.00;;;19.10;52.80;;;;;;5006712;28;20560;-83
2023/06/01 05:38:24;;;;;;;7.37;4.80;;;19.10;52.40;;;;;;5008617;28;20453;-85
2023/06/01 05:40:52;;;;;;;6.87;4.87;;;19.10;52.50;;;;;;5017284;28;20771;-85
2023/06/01 05:43:19;;;;;;;5.97;4.67;;;19.10;52.40;;;;;;5021535;28;20461;-83
2023/06/01 05:45:48;;;;;;;4.60;4.20;;;19.10;52.60;;;;;;5031073;28;20563;-85
2023/06/01 05:48:15;;;;;;;4.53;4.13;;;19.30;53.20;;;;;;5020815;28;20556;-84
2023/06/01 05:50:45;;;;;;;10.23;4.63;;;19.40;52.60;;;;;;4997570;28;20453;-80
2023/06/01 05:53:12;;;;;;;6.90;4.47;;;19.50;52.90;;;;;;5019191;28;21085;-85
2023/06/01 05:55:41;;;;;;;8.50;3.73;;;19.50;53.40;;;;;;5027582;28;20887;-83
2023/06/01 05:58:10;;;;;;;4.60;4.20;;;19.50;52.50;;;;;;5016724;28;21017;-83
2023/06/01 06:00:37;;;;;;;5.60;4.33;;;19.30;52.50;;;;;;5012225;28;20445;-87
2023/06/01 06:03:05;;;;;;;6.33;4.50;;;19.40;52.00;;;;;;5022571;28;20454;-84
2023/06/01 06:05:32;;;;;;;13.20;4.20;;;19.40;52.70;;;;;;4994564;28;21298;-82
2023/06/01 06:07:59;;;;;;;7.80;3.90;;;19.80;52.20;;;;;;5015322;28;20836;-84
2023/06/01 06:10:26;;;;;;;6.80;4.03;;;20.10;51.80;;;;;;5030641;28;20475;-84
2023/06/01 06:12:53;;;;;;;4.03;3.53;;;20.40;51.70;;;;;;5028461;28;20452;-85
2023/06/01 06:15:21;;;;;;;5.60;3.83;;;20.70;51.70;;;;;;5030680;28;20469;-83
2023/06/01 06:17:49;;;;;;;8.80;4.37;;;20.90;51.10;;;;;;5012898;28;20437;-84
2023/06/01 06:20:16;;;;;;;7.23;3.60;;;21.00;50.50;;;;;;5031956;28;20449;-84
2023/06/01 06:22:43;;;;;;;5.90;3.60;;;21.10;49.60;;;;;;5030818;28;21231;-83
2023/06/01 06:25:12;;;;;;;12.30;3.63;;;20.80;50.00;;;;;;5019072;28;20965;-83
2023/06/01 06:27:39;;;;;;;5.03;3.90;;;20.60;50.10;;;;;;5027066;28;20546;-86
2023/06/01 06:30:07;;;;;;;14.07;4.37;;;20.50;50.50;;;;;;5029580;28;22220;-84
2023/06/01 06:32:36;;;;;;;7.80;4.40;;;20.80;50.60;;;;;;5044526;28;20488;-84
2023/06/01 06:35:03;;;;;;;4.97;3.80;;;21.00;50.10;;;;;;5020987;28;20481;-84
2023/06/01 06:37:30;;;;;;;9.10;3.57;;;20.90;49.80;;;;;;5028217;28;20454;-85
2023/06/01 06:39:57;;;;;;;4.20;3.87;;;20.90;50.00;;;;;;5012556;28;20485;-84
2023/06/01 06:42:24;;;;;;;11.00;4.67;;;21.20;50.00;;;;;;5014958;28;20453;-83
2023/06/01 06:44:51;;;;;;;9.33;3.87;;;21.60;49.90;;;;;;5036606;28;20945;-84
2023/06/01 06:47:19;;;;;;;8.60;3.43;;;21.90;48.80;;;;;;5038324;28;20563;-83
2023/06/01 06:49:48;;;;;;;10.73;4.33;;;21.70;47.80;;;;;;5027111;28;21121;-83
2023/06/01 06:52:15;;;;;;;4.53;3.83;;;22.00;48.20;;;;;;5018980;28;20451;-84
2023/06/01 06:54:42;;;;;;;3.77;3.43;;;22.40;48.50;;;;;;5010853;28;21288;-84
2023/06/01 06:57:10;;;;;;;9.40;3.73;;;22.60;46.80;;;;;;5023769;28;20440;-86
2023/06/01 06:59:37;;;;;;;6.43;3.00;;;22.70;47.20;;;;;;5012909;28;20536;-88
2023/06/01 07:02:04;;;;;;;5.33;3.60;;;22.80;47.10;;;;;;5046314;28;20452;-84
2023/06/01 07:04:32;;;;;;;4.80;3.00;;;22.50;47.00;;;;;;5029887;28;20441;-83
2023/06/01 07:07:03;;;;;;;7.20;3.50;;;22.40;46.20;;;;;;4994164;28;20987;-83
2023/06/01 07:09:31;;;;;;;4.30;3.33;;;22.70;46.60;;;;;;5028196;28;20551;-83
2023/06/01 07:11:58;;;;;;;7.13;3.87;;;23.00;45.30;;;;;;5004014;28;20496;-84
2023/06/01 07:14:25;;;;;;;7.50;3.00;;;22.80;45.90;;;;;;5012086;28;20450;-84
2023/06/01 07:16:52;;;;;;;4.10;3.60;;;22.90;46.20;;;;;;5028283;28;20490;-83
2023/06/01 07:19:18;;;;;;;6.97;3.33;;;23.00;45.30;;;;;;5015625;28;20985;-85
2023/06/01 07:21:46;;;;;;;6.90;3.20;;;23.10;45.70;;;;;;5031256;28;20454;-82
2023/06/01 07:24:14;;;;;;;6.07;2.90;;;23.20;45.30;;;;;;5032822;28;20457;-83
2023/06/01 07:26:41;;;;;;;8.77;3.30;;;23.40;45.40;;;;;;5024470;28;21091;-83
2023/06/01 07:29:09;;;;;;;6.20;2.83;;;23.80;45.60;;;;;;5016673;28;20437;-85
2023/06/01 07:31:36;;;;;;;4.10;2.97;;;23.90;45.00;;;;;;5019939;28;20811;-83
2023/06/01 07:34:03;;;;;;;8.07;3.50;;;23.90;45.40;;;;;;5021697;28;20950;-84
2023/06/01 07:36:36;;;;;;;5.83;3.00;;;23.90;44.70;;;;;;5026511;28;20509;-85
2023/06/01 07:39:05;;;;;;;3.67;3.17;;;24.00;44.30;;;;;;5033368;28;20461;-84
2023/06/01 07:41:34;;;;;;;4.80;2.70;;;24.00;44.00;;;;;;5018645;28;20442;-84
2023/06/01 07:44:01;;;;;;;13.93;3.07;;;24.20;43.60;;;;;;5041579;28;20457;-85
2023/06/01 07:46:28;;;;;;;9.60;3.20;;;24.30;43.30;;;;;;5007118;28;20488;-85
2023/06/01 07:48:56;;;;;;;4.83;2.80;;;24.60;43.70;;;;;;5041546;28;20531;-85
2023/06/01 07:51:24;;;;;;;6.30;2.90;;;24.60;42.00;;;;;;5021121;28;20452;-84
2023/06/01 07:53:50;;;;;;;5.30;3.00;;;24.50;42.50;;;;;;5017569;28;20515;-85
2023/06/01 07:56:18;;;;;;;3.93;2.63;;;24.50;42.30;;;;;;5017098;28;20472;-84
2023/06/01 07:58:46;;;;;;;4.50;2.50;;;24.60;42.20;;;;;;4999549;28;21013;-85
2023/06/01 08:01:14;;;;;;;6.87;2.80;;;24.80;42.00;;;;;;5008986;28;20460;-85
2023/06/01 08:03:43;;;;;;;4.50;2.70;;;25.00;41.20;;;;;;5028800;28;20457;-83
2023/06/01 08:06:11;;;;;;;2.80;2.03;;;25.10;41.00;;;;;;5045152;28;20531;-85
2023/06/01 08:08:38;;;;;;;3.30;2.57;;;25.30;40.40;;;;;;5029992;28;20466;-86
2023/06/01 08:11:06;;;;;;;2.90;2.60;;;25.30;40.70;;;;;;5010991;28;21156;-85
2023/06/01 08:13:35;;;;;;;8.67;2.73;;;25.30;40.50;;;;;;5026777;28;20857;-84
2023/06/01 08:16:04;;;;;;;4.00;2.30;;;25.00;39.90;;;;;;5032533;28;20465;-84
2023/06/01 08:18:32;;;;;;;2.90;2.60;;;25.00;41.20;;;;;;5015206;28;20469;-84
2023/06/01 08:21:00;;;;;;;4.07;2.57;;;25.40;41.20;;;;;;5051004;28;20456;-85
2023/06/01 08:23:27;;;;;;;4.80;2.87;;;25.70;41.00;;;;;;5041859;28;20493;-85
2023/06/01 08:25:54;;;;;;;5.90;3.23;;;26.10;41.30;;;;;;5030115;28;20529;-84
2023/06/01 08:28:21;;;;;;;2.90;2.40;;;26.10;38.80;;;;;;5010394;28;20498;-86
2023/06/01 08:30:48;;;;;;;9.90;2.33;;;26.10;38.80;;;;;;5015840;28;20446;-83
2023/06/01 08:33:16;;;;;;;3.00;2.40;;;26.10;39.40;;;;;;5022513;28;20460;-85
2023/06/01 08:35:44;;;;;;;3.47;2.47;;;26.20;39.10;;;;;;5019945;28;20469;-84
2023/06/01 08:38:11;;;;;;;11.30;2.73;;;26.30;39.10;;;;;;5050164;28;21446;-86
2023/06/01 08:40:40;;;;;;;6.30;2.30;;;26.30;38.60;;;;;;5029644;28;20448;-84
2023/06/01 08:43:14;;;;;;;3.30;2.80;;;26.60;39.00;;;;;;5025567;28;20529;-84
2023/06/01 08:45:43;;;;;;;6.27;2.30;;;26.90;35.70;;;;;;5033143;28;20559;-84
2023/06/01 08:48:16;;;;;;;4.30;2.60;;;26.80;37.20;;;;;;5015542;28;20531;-82
2023/06/01 08:50:45;;;;;;;8.97;2.70;;;26.80;37.50;;;;;;5013812;28;20448;-84
2023/06/01 08:53:12;;;;;;;4.57;2.50;;;26.80;37.60;;;;;;5013307;28;20449;-83
2023/06/01 08:55:39;;;;;;;2.57;2.10;;;26.70;37.00;;;;;;5039213;28;20950;-84
2023/06/01 08:58:07;;;;;;;3.40;2.47;;;26.90;37.50;;;;;;5030158;28;20575;-85
2023/06/01 09:00:35;;;;;;;2.43;2.10;;;27.30;37.40;;;;;;5021273;28;20456;-84
2023/06/01 09:03:03;;;;;;;4.33;2.80;;;27.60;36.30;;;;;;5021450;28;20472;-84
2023/06/01 09:05:32;;;;;;;4.03;2.23;;;27.70;35.00;;;;;;5002744;28;21057;-84
2023/06/01 09:07:59;;;;;;;5.47;2.47;;;27.80;35.20;;;;;;5017360;28;20850;-83
2023/06/01 09:10:26;;;;;;;3.20;2.20;;;27.90;34.70;;;;;;5023045;28;20942;-85
2023/06/01 09:12:54;;;;;;;5.33;2.50;;;28.00;36.30;;;;;;5035877;28;20954;-84
2023/06/01 09:15:22;;;;;;;5.40;2.50;;;28.10;34.70;;;;;;5018665;28;20562;-84
2023/06/01 09:17:51;;;;;;;5.63;2.03;;;28.20;35.00;;;;;;5033392;28;20453;-85
2023/06/01 09:20:24;;;;;;;8.20;2.50;;;28.30;35.20;;;;;;5019120;28;20960;-84
2023/06/01 09:22:53;;;;;;;2.60;2.03;;;28.50;34.90;;;;;;5048349;28;20460;-84
2023/06/01 09:25:26;;;;;;;6.70;2.37;;;28.80;35.00;;;;;;5024532;28;20497;-86
2023/06/01 09:27:54;;;;;;;3.20;2.10;;;28.90;32.40;;;;;;5034602;28;20468;-84
2023/06/01 09:30:24;;;;;;;3.47;2.43;;;28.50;34.10;;;;;;5036193;28;20926;-85
2023/06/01 09:32:52;;;;;;;4.73;2.63;;;28.50;33.60;;;;;;5022732;28;21192;-85
2023/06/01 09:35:38;;;;;;;7.47;2.30;;;28.50;33.80;;;;;;5031858;28;20997;-85
2023/06/01 09:38:06;;;;;;;3.03;2.10;;;28.60;35.30;;;;;;5032084;28;20449;-85
2023/06/01 09:40:34;;;;;;;3.50;2.20;;;29.00;33.90;;;;;;5013944;28;20445;-85
2023/06/01 09:43:02;;;;;;;3.43;2.50;;;29.30;32.10;;;;;;5021355;28;21116;-85
2023/06/01 09:45:31;;;;;;;3.50;2.10;;;29.60;33.20;;;;;;5023364;28;20476;-86
2023/06/01 09:48:17;;;;;;;2.43;2.23;;;29.70;30.80;;;;;;5042730;28;20475;-84
2023/06/01 09:50:44;;;;;;;14.40;2.30;;;29.80;33.30;;;;;;5015586;28;20454;-84
2023/06/01 09:53:13;;;;;;;8.33;2.20;;;29.90;29.80;;;;;;5048919;28;20456;-84
2023/06/01 09:55:58;;;;;;;4.20;2.13;;;29.80;30.80;;;;;;5017480;28;20578;-84
2023/06/01 09:58:25;;;;;;;4.60;2.30;;;30.00;30.80;;;;;;5014382;28;20494;-84
2023/06/01 10:00:53;;;;;;;2.87;1.97;;;30.20;31.70;;;;;;5031720;28;20450;-86
2023/06/01 10:03:21;;;;;;;3.07;2.20;;;30.30;30.40;;;;;;5047932;28;20441;-83
2023/06/01 10:05:49;;;;;;;4.57;2.20;;;30.40;30.00;;;;;;5004094;28;20483;-84
2023/06/01 10:08:18;;;;;;;11.57;2.40;;;30.40;29.80;;;;;;5022530;28;20471;-84
2023/06/01 10:10:47;;;;;;;3.93;2.27;;;30.50;30.00;;;;;;5000371;28;20443;-83
2023/06/01 10:13:15;;;;;;;5.07;2.27;;;30.50;29.90;;;;;;5032300;28;20976;-86
2023/06/01 10:15:42;;;;;;;2.50;2.13;;;30.60;29.30;;;;;;5035649;28;20504;-85
2023/06/01 10:18:09;;;;;;;5.00;2.80;;;30.50;28.90;;;;;;5007009;28;20454;-89
2023/06/01 10:20:38;;;;;;;3.47;2.53;;;30.50;29.10;;;;;;5025558;28;20448;-85
2023/06/01 10:23:06;;;;;;;3.50;1.67;;;30.70;29.30;;;;;;5039997;28;20460;-86
2023/06/01 10:25:42;;;;;;;8.43;2.03;;;30.90;29.50;;;;;;5023650;28;20480;-86
2023/06/01 10:28:11;;;;;;;2.80;1.87;;;31.10;28.60;;;;;;5035646;28;20483;-87
2023/06/01 10:30:39;;;;;;;6.00;2.50;;;31.10;26.20;;;;;;5030517;28;20448;-84
2023/06/01 10:33:07;;;;;;;2.87;2.07;;;30.70;26.20;;;;;;5034758;28;20946;-86
2023/06/01 10:36:05;;;;;;;8.23;2.27;;;30.70;27.60;;;;;;5005380;28;20471;-86
2023/06/01 10:38:32;;;;;;;2.37;1.90;;;31.00;28.30;;;;;;5032903;28;20989;-85
2023/06/01 10:41:30;;;;;;;5.03;2.07;;;31.20;27.60;;;;;;5031801;28;20460;-86
2023/06/01 10:43:57;;;;;;;3.83;1.90;;;31.20;27.20;;;;;;5028717;28;20452;-86
2023/06/01 10:46:43;;;;;;;2.73;1.83;;;31.40;27.20;;;;;;5019255;28;20464;-86
2023/06/01 10:49:10;;;;;;;3.63;1.73;;;31.30;26.80;;;;;;5021974;28;20472;-85
2023/06/01 10:51:37;;;;;;;2.73;2.00;;;31.30;26.80;;;;;;5021378;28;20559;-86
2023/06/01 10:54:25;;;;;;;2.13;1.93;;;31.60;26.80;;;;;;5025247;28;20440;-84
2023/06/01 10:57:24;;;;;;;2.57;1.80;;;31.30;25.30;;;;;;5029411;28;21526;-85
2023/06/01 11:00:15;;;;;;;4.90;2.97;;;31.20;25.60;;;;;;5019375;28;20493;-85
2023/06/01 11:02:53;;;;;;;3.30;2.50;;;31.40;26.50;;;;;;5016247;28;20441;-86
2023/06/01 11:05:43;;;;;;;4.67;1.90;;;31.60;26.50;;;;;;5037761;28;20479;-86
2023/06/01 11:08:48;;;;;;;2.93;1.80;;;31.80;24.80;;;;;;5041026;28;20463;-86
2023/06/01 11:11:16;;;;;;;2.20;2.00;;;31.80;23.90;;;;;;5050203;28;20445;-86
2023/06/01 11:13:45;;;;;;;1.80;1.53;;;31.40;25.10;;;;;;5018797;28;20493;-87
2023/06/01 11:16:30;;;;;;;2.60;2.40;;;31.00;25.20;;;;;;5020489;28;20472;-86
2023/06/01 11:18:59;;;;;;;3.17;2.13;;;31.10;25.60;;;;;;5032388;28;20440;-86
2023/06/01 11:21:28;;;;;;;5.07;2.50;;;31.20;25.60;;;;;;5023284;28;20444;-86
2023/06/01 11:23:56;;;;;;;2.83;2.10;;;31.40;25.20;;;;;;5051876;28;20464;-87
2023/06/01 11:26:27;;;;;;;2.40;1.93;;;31.60;24.90;;;;;;5017173;28;20472;-85
2023/06/01 11:29:05;;;;;;;2.50;2.10;;;31.70;24.20;;;;;;5021710;28;20469;-86
2023/06/01 11:31:37;;;;;;;3.27;2.50;;;31.90;24.40;;;;;;5044860;28;20646;-89
2023/06/01 11:34:04;;;;;;;2.83;2.10;;;32.00;23.60;;;;;;5058988;28;20460;-86
2023/06/01 11:36:36;;;;;;;2.10;1.90;;;31.60;25.30;;;;;;5031578;28;20476;-86
2023/06/01 11:39:04;;;;;;;4.00;2.03;;;32.00;25.90;;;;;;5041055;28;20448;-84
2023/06/01 11:41:31;;;;;;;3.37;2.23;;;32.40;26.00;;;;;;5041496;28;20443;-86
2023/06/01 11:43:59;;;;;;;2.30;2.10;;;32.70;25.30;;;;;;5033442;28;20444;-87
2023/06/01 11:46:28;;;;;;;2.57;1.90;;;32.80;23.70;;;;;;5073535;28;21023;-85
2023/06/01 11:49:04;;;;;;;2.13;1.93;;;32.50;24.60;;;;;;5040254;28;20452;-87
2023/06/01 11:51:32;;;;;;;5.60;2.33;;;32.70;25.90;;;;;;5040073;28;20476;-85
2023/06/01 11:54:02;;;;;;;2.83;2.13;;;32.50;25.00;;;;;;5031550;28;20452;-86
2023/06/01 11:56:32;;;;;;;3.17;2.20;;;32.30;24.70;;;;;;5031052;28;21021;-86
2023/06/01 11:59:04;;;;;;;2.17;1.90;;;32.40;25.40;;;;;;5038139;28;20492;-86
2023/06/01 12:01:31;;;;;;;4.60;2.23;;;32.60;24.60;;;;;;5057292;28;20474;-87
2023/06/01 12:03:58;;;;;;;2.13;1.60;;;32.60;26.20;;;;;;5072629;28;20443;-86
2023/06/01 12:06:26;;;;;;;2.53;2.30;;;32.80;24.50;;;;;;5023768;28;20479;-85
2023/06/01 12:08:54;;;;;;;8.53;2.30;;;32.90;24.80;;;;;;5048567;28;20536;-85
2023/06/01 12:11:26;;;;;;;5.90;2.40;;;33.10;24.90;;;;;;5053601;28;20446;-86
2023/06/01 12:13:54;;;;;;;2.77;1.90;;;33.10;23.70;;;;;;5033708;28;20528;-87
2023/06/01 12:16:24;;;;;;;3.40;2.00;;;33.10;24.50;;;;;;5063589;28;20464;-86
2023/06/01 12:18:52;;;;;;;2.70;2.47;;;33.20;24.10;;;;;;5042296;28;20440;-86
2023/06/01 12:21:19;;;;;;;5.70;1.80;;;33.30;24.60;;;;;;5051987;28;20476;-86
2023/06/01 12:23:51;;;;;;;5.00;2.20;;;33.20;24.10;;;;;;5027297;28;20474;-86
2023/06/01 12:26:18;;;;;;;3.20;2.20;;;33.00;23.50;;;;;;5053898;28;20542;-85
2023/06/01 12:28:50;;;;;;;4.47;2.23;;;33.20;25.30;;;;;;5042833;28;20464;-86
2023/06/01 12:31:18;;;;;;;3.80;2.20;;;33.10;23.90;;;;;;5053725;28;20986;-86
2023/06/01 12:33:48;;;;;;;4.23;2.13;;;33.00;24.10;;;;;;5055457;28;20449;-86
2023/06/01 12:36:32;;;;;;;4.73;2.00;;;33.00;25.00;;;;;;5037707;28;20544;-85
2023/06/01 12:39:00;;;;;;;3.20;2.27;;;33.40;24.80;;;;;;5035271;28;20454;-85
2023/06/01 12:41:28;;;;;;;4.33;2.40;;;33.60;24.20;;;;;;5038380;28;20455;-86
2023/06/01 12:43:56;;;;;;;4.80;2.20;;;33.50;24.10;;;;;;5038379;28;20439;-85
2023/06/01 12:46:25;;;;;;;2.50;1.97;;;33.50;24.50;;;;;;5021345;28;20525;-87
2023/06/01 12:48:54;;;;;;;5.90;2.60;;;33.60;25.10;;;;;;5064464;28;20467;-87
2023/06/01 12:51:21;;;;;;;3.20;2.10;;;33.40;24.70;;;;;;5050957;28;20455;-87
2023/06/01 12:53:48;;;;;;;3.83;2.00;;;33.10;23.70;;;;;;5044024;28;20468;-86
2023/06/01 12:56:16;;;;;;;3.33;2.00;;;33.00;24.60;;;;;;5038989;28;20468;-86
2023/06/01 12:58:43;;;;;;;2.73;2.00;;;33.00;24.80;;;;;;5048695;28;20453;-87